Jahroma, Russia
Current Conditions -  °F | °C
As of 11:30 AM on Friday 24 Oct 2014 (Local Time) from UUEE Reporting Station
Broken Clouds Broken Clouds  
Wind Chill: 13°   Ceiling: 2100
Heat Index: 25°   Visibility: 6mi
Dew Point: 18°   Wind: 13mph
Humidity: 74%   Direction: 330°NNW
Pressure: 30.56"   Gusts: 25mph
Location:  56.3°N, 37.48°E
Report Text: UUEE 240830Z 33006G11MPS 9999 BKN021 M04/M08 Q1035 WS RWY25R75410162 25410151 NOSIG
Loading
Personal Weather Stations






























Interactive Weather Map
Tropical Storm Tracking
New forecast layout! Learn more

10-Day Weather Forecast

Advertisements
Track Severe Weather on mobile